Airfield :
LOGIN :

Register | Disclaimer

   EN    FR    IT 

 










Legend :    VFR   Marginal VFR   IFR   Intensive IFR   Very Intensive IFR
Visi :
Ceiling :
>= 8 km
>= 3000ft
5 to 8 km
1000 to 3000 ft
1500m to 5 km
500 to 1000 ft
800 to 1500m
200 to 500 ft
< 800m
< 200 ft
Symbols :   Thunderstorms  Fog  Heavy snow  Heavy precipitations  Wind > 20 kt
SIGMETs :     Misc.  Thunderstorms  Icing  Turbulence  Mountain Waves  Volcanic Ashes






- Airport Elevation : 768 ft
- IATA code : MXP


LIMC - Milano Malpensa

CURRENT METAR :
  • 121320Z 24003KT 210V290 9999 BKN014 BKN024 04/02 Q1005 NOSIG

EXPIRED METARs :
  • 121250Z 23004KT 9999 BKN015 04/02 Q1005 NOSIG
  • 121220Z 22003KT 200V280 9999 BKN015 04/02 Q1006 NOSIG
  • 121150Z 19004KT 150V240 9999 BKN015 04/03 Q1006 NOSIG
  • 121120Z 19003KT 150V210 8000 BKN015 04/03 Q1006 NOSIG
  • 121050Z VRB02KT 8000 BKN015 04/03 Q1006 NOSIG

TAF TAF LIMC
Valid from the 12 at 12:00 until the 13 at 18:00 UTC


121100Z 1212/1318 VRB05KT 7000 SCT015 BKN050
BECMG 1300/1303 1000 SN OVC005



MET'MAP, your aeronautical weather chart ! - Copyright ORBIFLY December 2007 - Disclaimer

ORBIFLY MET'MAP TEAM :

Programming & Development : Alexandra Zaïnal
Concept & original design : Baudouin d'Aumeries
Assistance for programming : Marc-Olivier Méhu
Technical & hardware support : Manuel Goepfert

Contact : metmap@orbifly.com




SOURCES & CREDITS :

   NOAA